.
WxDataArchive / Data Records for 2012-01-21
2012-01-20 January 2012 2012-01-22

Data Records for Saturday, 21 January 2012

Time	Temp	Chill	HIndex	Humid	Dewpt	 Wind 	HiWind	WindDir	Rain 	Barom 
-----	----	-----	------	-----	-----	------	------	-------	-----	----- 
00:00	16.1	16.1	16.1	87	12.9	2	4	90	0.00	30.067 
00:05	16.1	16.1	16.1	88	13.2	1	5	90	0.00	30.067 
00:10	16.2	16.2	16.2	88	13.3	1	5	112	0.00	30.067 
00:15	16.2	16.2	16.2	88	13.3	1	5	90	0.00	30.059 
00:20	16.2	16.2	16.2	88	13.3	1	5	90	0.00	30.059 
00:25	16.2	16.2	16.2	88	13.3	1	4	90	0.00	30.059 
00:30	16.2	16.2	16.2	88	13.3	1	3	112	0.00	30.056 
00:35	16.4	16.4	16.4	88	13.5	0	3	112	0.00	30.056 
00:40	16.4	16.4	16.4	88	13.5	1	4	112	0.00	30.056 
00:45	16.4	16.4	16.4	88	13.5	1	3	90	0.00	30.044 
00:50	16.4	16.4	16.4	88	13.5	1	5	90	0.00	30.044 
00:55	16.4	16.4	16.4	87	13.2	1	4	90	0.00	30.044 
01:00	16.2	16.2	16.2	87	13.0	1	3	45	0.00	30.044 
01:05	16.2	16.2	16.2	87	13.0	0	2	45	0.00	30.044 
01:10	16.2	16.2	16.2	87	13.0	1	4	45	0.00	30.044 
01:15	16.2	16.2	16.2	87	13.0	0	2	90	0.00	30.048 
01:20	16.1	16.1	16.1	87	12.9	1	3	68	0.00	30.048 
01:25	16.1	16.1	16.1	87	12.9	1	3	68	0.00	30.048 
01:30	15.9	15.9	15.9	87	12.7	1	3	68	0.00	30.056 
01:35	15.9	15.9	15.9	87	12.7	0	2	45	0.00	30.056 
01:40	15.9	15.9	15.9	87	12.7	1	3	135	0.00	30.056 
01:45	15.9	15.9	15.9	87	12.7	0	2	45	0.00	30.047 
01:50	15.9	15.9	15.9	86	12.5	1	4	90	0.00	30.047 
01:55	15.9	15.9	15.9	86	12.5	0	2	112	0.00	30.047 
02:00	15.9	15.9	15.9	86	12.5	0	3	112	0.00	30.042 
02:05	15.9	15.9	15.9	86	12.5	0	4	112	0.00	30.042 
02:10	16.1	16.1	16.1	86	12.7	0	3	45	0.00	30.042 
02:15	16.1	16.1	16.1	86	12.7	0	5	112	0.00	30.050 
02:20	16.2	16.2	16.2	86	12.8	0	3	45	0.00	30.050 
02:25	16.4	16.4	16.4	86	13.0	0	1	45	0.00	30.050 
02:30	16.4	16.4	16.4	86	13.0	0	2	45	0.00	30.060 
02:35	16.5	16.5	16.5	86	13.1	0	2	45	0.00	30.060 
02:40	16.5	16.5	16.5	86	13.1	0	2	90	0.00	30.060 
02:45	16.5	16.5	16.5	86	13.1	1	5	90	0.00	30.064 
02:50	16.5	16.5	16.5	86	13.1	0	3	90	0.00	30.064 
02:55	16.5	16.5	16.5	86	13.1	0	2	338	0.00	30.064 
03:00	16.5	16.5	16.5	86	13.1	0	2	135	0.00	30.057 
03:05	16.5	16.5	16.5	86	13.1	1	2	45	0.00	30.057 
03:10	16.7	16.7	16.7	86	13.3	1	3	45	0.00	30.057 
03:15	16.7	16.7	16.7	86	13.3	0	1	45	0.00	30.067 
03:20	16.7	16.7	16.7	86	13.3	0	3	135	0.00	30.067 
03:25	16.7	16.7	16.7	86	13.3	0	3	112	0.00	30.067 
03:30	16.7	16.7	16.7	85	13.0	0	3	22	0.00	30.078 
03:35	16.7	16.7	16.7	85	13.0	0	3	180	0.00	30.078 
03:40	16.7	16.7	16.7	85	13.0	0	3	0	0.00	30.078 
03:45	16.7	16.7	16.7	85	13.0	1	5	68	0.00	30.076 
03:50	16.7	16.7	16.7	85	13.0	0	2	45	0.00	30.076 
03:55	16.7	16.7	16.7	85	13.0	0	3	45	0.00	30.076 
04:00	16.7	16.7	16.7	85	13.0	0	2	45	0.00	30.076 
04:05	16.7	16.7	16.7	85	13.0	0	3	338	0.00	30.076 
04:10	16.7	16.7	16.7	84	12.7	0	3	112	0.00	30.076 
04:15	16.7	16.7	16.7	84	12.7	0	3	135	0.00	30.075 
04:20	16.5	16.5	16.5	84	12.5	0	3	45	0.00	30.075 
04:25	16.4	16.4	16.4	84	12.4	0	2	45	0.00	30.075 
04:30	16.2	16.2	16.2	84	12.2	0	3	45	0.00	30.088 
04:35	16.1	16.1	16.1	84	12.1	0	2	22	0.00	30.088 
04:40	15.9	15.9	15.9	84	11.9	0	2	0	0.00	30.088 
04:45	15.7	15.7	15.7	84	11.7	0	2	90	0.00	30.095 
04:50	15.6	15.6	15.6	84	11.6	0	3	68	0.00	30.095 
04:55	15.4	15.4	15.4	83	11.2	0	3	22	0.00	30.095 
05:00	15.2	15.2	15.2	83	11.0	0	2	22	0.00	30.105 
05:05	15.1	15.1	15.1	83	10.9	1	4	68	0.00	30.105 
05:10	14.8	14.8	14.8	83	10.6	0	3	338	0.00	30.105 
05:15	14.6	14.6	14.6	83	10.4	0	3	0	0.00	30.109 
05:20	14.4	14.4	14.4	82	9.9	0	2	0	0.00	30.109 
05:25	14.1	14.1	14.1	82	9.6	0	1	0	0.00	30.109 
05:30	13.8	13.8	13.8	82	9.3	0	1	0	0.00	30.117 
05:35	13.6	13.6	13.6	82	9.1	0	2	0	0.00	30.117 
05:40	13.3	13.3	13.3	82	8.9	0	1	0	0.00	30.117 
05:45	13.3	13.3	13.3	83	9.1	0	2	22	0.00	30.124 
05:50	13.1	13.1	13.1	83	8.9	0	2	0	0.00	30.124 
05:55	12.9	12.9	12.9	83	8.7	0	2	270	0.00	30.124 
06:00	12.8	12.8	12.8	83	8.6	0	2	45	0.00	30.126 
06:05	12.8	12.8	12.8	83	8.6	0	2	22	0.00	30.126 
06:10	12.6	12.6	12.6	83	8.4	0	2	338	0.00	30.126 
06:15	12.6	12.6	12.6	83	8.4	0	2	338	0.00	30.132 
06:20	12.4	12.4	12.4	83	8.2	0	2	315	0.00	30.132 
06:25	12.4	12.4	12.4	83	8.2	0	2	315	0.00	30.132 
06:30	12.3	12.3	12.3	83	8.1	0	2	315	0.00	30.139 
06:35	12.3	12.3	12.3	83	8.1	0	3	22	0.00	30.139 
06:40	12.3	12.3	12.3	83	8.1	0	3	135	0.00	30.139 
06:45	12.3	12.3	12.3	83	8.1	0	2	338	0.00	30.141 
06:50	12.3	12.3	12.3	83	8.1	0	3	338	0.00	30.141 
06:55	12.3	12.3	12.3	83	8.1	0	3	0	0.00	30.141 
07:00	12.3	12.3	12.3	83	8.1	0	3	338	0.00	30.154 
07:05	12.4	12.4	12.4	83	8.2	1	3	338	0.00	30.154 
07:10	12.8	12.8	12.8	83	8.6	0	3	202	0.00	30.154 
07:15	12.9	12.9	12.9	83	8.7	0	2	315	0.00	30.156 
07:20	13.1	13.1	13.1	83	8.9	0	3	45	0.00	30.156 
07:25	13.5	13.5	13.5	83	9.3	1	4	315	0.00	30.156 
07:30	13.5	13.5	13.5	83	9.3	0	2	22	0.00	30.168 
07:35	13.6	13.6	13.6	83	9.4	0	3	22	0.00	30.168 
07:40	13.6	13.6	13.6	82	9.1	1	3	112	0.00	30.168 
07:45	13.8	13.8	13.8	82	9.3	0	3	22	0.00	30.170 
07:50	13.8	13.8	13.8	82	9.3	0	2	45	0.00	30.170 
07:55	13.8	13.8	13.8	82	9.3	0	2	45	0.00	30.170 
08:00	13.8	13.8	13.8	82	9.3	0	1	45	0.00	30.176 
08:05	13.8	13.8	13.8	82	9.3	0	3	135	0.00	30.176 
08:10	14.0	14.0	14.0	81	9.3	0	2	135	0.00	30.176 
08:15	14.0	14.0	14.0	81	9.3	0	1	135	0.00	30.186 
08:20	14.0	14.0	14.0	82	9.5	0	0	---	0.00	30.186 
08:25	14.1	14.1	14.1	82	9.6	0	3	135	0.00	30.186 
08:30	14.1	14.1	14.1	81	9.4	0	1	68	0.00	30.198 
08:35	14.3	14.3	14.3	81	9.6	0	1	338	0.00	30.198 
08:40	14.3	14.3	14.3	81	9.6	0	2	135	0.00	30.198 
08:45	14.4	14.4	14.4	81	9.7	1	3	135	0.00	30.202 
08:50	14.6	14.6	14.6	81	9.9	0	2	22	0.00	30.202 
08:55	14.6	14.6	14.6	81	9.9	0	3	338	0.00	30.202 
09:00	14.8	14.8	14.8	80	9.8	0	1	338	0.00	30.214 
09:05	14.9	14.9	14.9	80	9.9	0	2	338	0.00	30.214 
09:10	14.9	14.9	14.9	80	9.9	0	3	90	0.00	30.214 
09:15	15.1	15.1	15.1	80	10.1	0	2	45	0.00	30.220 
09:20	15.2	15.2	15.2	79	9.9	0	2	45	0.00	30.220 
09:25	15.2	15.2	15.2	78	9.6	0	2	45	0.00	30.220 
09:30	15.2	15.2	15.2	78	9.6	0	3	112	0.00	30.230 
09:35	15.4	15.4	15.4	78	9.8	0	1	90	0.00	30.230 
09:40	15.6	15.6	15.6	78	10.0	0	2	90	0.00	30.230 
09:45	15.9	15.9	15.9	77	10.0	0	2	90	0.00	30.238 
09:50	16.2	16.2	16.2	76	10.0	0	2	90	0.00	30.238 
09:55	16.4	16.4	16.4	75	9.9	0	1	90	0.00	30.238 
10:00	16.4	16.4	16.4	74	9.6	1	3	90	0.00	30.240 
10:05	16.2	16.2	16.2	74	9.4	0	3	90	0.00	30.240 
10:10	16.2	16.2	16.2	74	9.4	0	2	0	0.00	30.240 
10:15	16.1	16.1	16.1	73	9.0	1	4	112	0.00	30.241 
10:20	16.1	16.1	16.1	73	9.0	1	3	338	0.00	30.241 
10:25	16.1	16.1	16.1	72	8.7	1	3	112	0.00	30.241 
10:30	16.1	16.1	16.1	72	8.7	1	3	68	0.00	30.244 
10:35	16.2	16.2	16.2	73	9.1	0	1	68	0.00	30.244 
10:40	16.4	16.4	16.4	72	9.0	0	3	68	0.00	30.244 
10:45	16.5	16.5	16.5	72	9.1	1	3	68	0.00	30.258 
10:50	16.5	16.5	16.5	72	9.1	1	4	90	0.00	30.258 
10:55	16.7	16.7	16.7	72	9.3	0	2	90	0.00	30.258 
11:00	16.9	16.9	16.9	71	9.2	0	3	90	0.00	30.258 
11:05	16.9	16.9	16.9	71	9.2	1	3	90	0.00	30.258 
11:10	16.9	16.9	16.9	71	9.2	0	2	90	0.00	30.258 
11:15	17.0	17.0	17.0	70	8.9	1	5	112	0.00	30.265 
11:20	17.0	17.0	17.0	70	8.9	1	3	112	0.00	30.265 
11:25	17.0	17.0	17.0	71	9.2	0	2	45	0.00	30.265 
11:30	17.3	17.3	17.3	71	9.5	0	2	45	0.00	30.274 
11:35	17.7	17.7	17.7	71	9.9	0	2	45	0.00	30.274 
11:40	17.7	17.7	17.7	70	9.6	1	4	68	0.00	30.274 
11:45	17.7	17.7	17.7	69	9.3	1	3	135	0.00	30.271 
11:50	17.7	17.7	17.7	69	9.3	1	3	68	0.00	30.271 
11:55	17.8	17.8	17.8	69	9.4	0	2	68	0.00	30.271 
12:00	17.8	17.8	17.8	69	9.4	0	3	112	0.00	30.258 
12:05	18.0	18.0	18.0	70	9.9	0	2	112	0.00	30.258 
12:10	18.1	18.1	18.1	68	9.3	1	2	112	0.00	30.258 
12:15	18.3	18.3	18.3	69	9.9	1	2	112	0.00	30.259 
12:20	18.4	18.4	18.4	68	9.6	1	4	112	0.00	30.259 
12:25	18.4	18.4	18.4	68	9.6	1	4	112	0.00	30.259 
12:30	18.6	18.6	18.6	68	9.8	1	3	112	0.00	30.249 
12:35	18.6	18.6	18.6	68	9.8	2	4	112	0.00	30.249 
12:40	18.6	18.6	18.6	68	9.8	1	3	112	0.00	30.249 
12:45	18.9	18.9	18.9	69	10.4	0	2	112	0.00	30.254 
12:50	19.2	19.2	19.2	68	10.4	0	3	45	0.00	30.254 
12:55	19.2	19.2	19.2	67	10.1	1	4	45	0.00	30.254 
13:00	19.4	19.4	19.4	68	10.6	1	4	90	0.00	30.249 
13:05	19.4	19.4	19.4	68	10.6	0	1	22	0.00	30.249 
13:10	19.7	19.7	19.7	68	10.9	0	2	22	0.00	30.249 
13:15	19.9	19.9	19.9	67	10.7	1	3	22	0.00	30.255 
13:20	20.0	20.0	20.0	67	10.8	1	3	112	0.00	30.255 
13:25	20.0	20.0	20.0	66	10.5	1	4	112	0.00	30.255 
13:30	20.3	20.3	20.3	67	11.1	0	2	112	0.00	30.247 
13:35	20.5	20.5	20.5	68	11.6	0	2	112	0.00	30.247 
13:40	20.5	20.5	20.5	67	11.3	0	1	68	0.00	30.247 
13:45	20.6	20.6	20.6	67	11.4	1	4	90	0.00	30.244 
13:50	20.6	20.6	20.6	67	11.4	0	3	90	0.00	30.244 
13:55	20.8	20.8	20.8	66	11.3	0	2	90	0.00	30.244 
14:00	20.8	20.8	20.8	66	11.3	0	3	90	0.00	30.251 
14:05	21.0	21.0	21.0	66	11.5	0	2	90	0.00	30.251 
14:10	21.1	21.1	21.1	66	11.5	0	6	90	0.00	30.251 
14:15	21.1	21.1	21.1	66	11.5	0	3	90	0.00	30.252 
14:20	21.4	21.4	21.4	66	11.8	0	2	90	0.00	30.252 
14:25	21.6	21.6	21.6	65	11.7	0	3	90	0.00	30.252 
14:30	21.6	21.6	21.6	65	11.7	0	2	90	0.00	30.253 
14:35	21.8	21.8	21.8	65	11.9	0	2	90	0.00	30.253 
14:40	21.8	21.8	21.8	65	11.9	0	2	90	0.00	30.253 
14:45	21.8	21.8	21.8	65	11.9	1	4	90	0.00	30.250 
14:50	21.6	21.6	21.6	65	11.7	1	3	90	0.00	30.250 
14:55	21.8	21.8	21.8	65	11.9	0	1	90	0.00	30.250 
15:00	21.8	21.8	21.8	65	11.9	0	2	90	0.00	30.248 
15:05	21.9	21.9	21.9	65	12.0	0	1	90	0.00	30.248 
15:10	21.9	21.9	21.9	65	12.0	0	1	90	0.00	30.248 
15:15	22.1	22.1	22.1	65	12.2	0	3	90	0.00	30.239 
15:20	21.9	21.9	21.9	63	11.3	2	4	90	0.00	30.239 
15:25	21.8	21.8	21.8	64	11.5	1	2	90	0.00	30.239 
15:30	21.6	21.6	21.6	64	11.3	2	4	90	0.00	30.241 
15:35	21.6	21.6	21.6	64	11.3	1	5	90	0.00	30.241 
15:40	21.4	21.4	21.4	65	11.5	2	5	90	0.00	30.241 
15:45	21.4	21.4	21.4	65	11.5	2	5	90	0.00	30.243 
15:50	21.3	21.3	21.3	65	11.4	1	2	90	0.00	30.243 
15:55	21.3	21.3	21.3	65	11.4	1	3	90	0.00	30.243 
16:00	21.3	21.3	21.3	65	11.4	1	4	90	0.00	30.248 
16:05	21.3	21.3	21.3	66	11.7	0	1	90	0.00	30.248 
16:10	21.3	21.3	21.3	65	11.4	1	3	90	0.00	30.248 
16:15	21.1	21.1	21.1	65	11.2	1	4	90	0.00	30.254 
16:20	21.1	21.1	21.1	66	11.5	0	3	90	0.00	30.254 
16:25	21.1	21.1	21.1	65	11.2	1	3	90	0.00	30.254 
16:30	21.0	21.0	21.0	65	11.1	2	4	90	0.00	30.247 
16:35	20.6	20.6	20.6	65	10.7	2	4	90	0.00	30.247 
16:40	20.6	20.6	20.6	65	10.7	1	4	90	0.00	30.247 
16:45	20.5	20.5	20.5	65	10.6	2	4	90	0.00	30.258 
16:50	20.5	20.5	20.5	65	10.6	1	5	90	0.00	30.258 
16:55	20.5	20.5	20.5	66	11.0	1	2	90	0.00	30.258 
17:00	20.3	20.3	20.3	66	10.8	1	3	90	0.00	30.261 
17:05	20.2	20.2	20.2	66	10.7	1	4	90	0.00	30.261 
17:10	20.0	20.0	20.0	66	10.5	0	2	90	0.00	30.261 
17:15	19.9	19.9	19.9	66	10.4	0	2	90	0.00	30.274 
17:20	19.7	19.7	19.7	67	10.5	0	2	90	0.00	30.274 
17:25	19.5	19.5	19.5	67	10.4	1	2	90	0.00	30.274 
17:30	19.4	19.4	19.4	67	10.3	1	2	90	0.00	30.276 
17:35	19.2	19.2	19.2	68	10.4	0	2	90	0.00	30.276 
17:40	18.9	18.9	18.9	68	10.1	0	2	90	0.00	30.276 
17:45	18.8	18.8	18.8	69	10.3	0	2	90	0.00	30.287 
17:50	18.4	18.4	18.4	69	10.0	0	2	90	0.00	30.287 
17:55	18.3	18.3	18.3	69	9.9	0	1	90	0.00	30.287 
18:00	18.0	18.0	18.0	69	9.6	0	1	90	0.00	30.292 
18:05	17.7	17.7	17.7	70	9.6	0	1	90	0.00	30.292 
18:10	17.3	17.3	17.3	70	9.2	0	0	---	0.00	30.292 
18:15	16.9	16.9	16.9	71	9.2	0	1	90	0.00	30.292 
18:20	16.5	16.5	16.5	72	9.1	0	1	90	0.00	30.292 
18:25	16.4	16.4	16.4	72	9.0	0	2	90	0.00	30.292 
18:30	16.4	16.4	16.4	72	9.0	0	1	90	0.00	30.296 
18:35	16.2	16.2	16.2	72	8.8	0	1	90	0.00	30.296 
18:40	15.9	15.9	15.9	73	8.8	0	0	---	0.00	30.296 
18:45	15.7	15.7	15.7	73	8.6	0	1	90	0.00	30.300 
18:50	15.6	15.6	15.6	74	8.8	0	1	90	0.00	30.300 
18:55	15.6	15.6	15.6	74	8.8	0	2	90	0.00	30.300 
19:00	15.4	15.4	15.4	74	8.6	0	1	90	0.00	30.312 
19:05	15.2	15.2	15.2	74	8.4	0	1	90	0.00	30.312 
19:10	15.1	15.1	15.1	74	8.3	0	0	---	0.00	30.312 
19:15	14.8	14.8	14.8	74	8.0	0	0	---	0.00	30.316 
19:20	14.3	14.3	14.3	75	7.9	0	0	---	0.00	30.316 
19:25	14.0	14.0	14.0	75	7.6	0	0	---	0.00	30.316 
19:30	13.8	13.8	13.8	76	7.7	0	0	---	0.00	30.315 
19:35	13.5	13.5	13.5	77	7.7	0	0	---	0.00	30.315 
19:40	13.6	13.6	13.6	77	7.8	0	1	90	0.00	30.315 
19:45	13.6	13.6	13.6	77	7.8	0	1	90	0.00	30.317 
19:50	13.6	13.6	13.6	77	7.8	0	1	90	0.00	30.317 
19:55	13.6	13.6	13.6	77	7.8	0	1	90	0.00	30.317 
20:00	13.6	13.6	13.6	77	7.8	0	0	---	0.00	30.314 
20:05	13.6	13.6	13.6	77	7.8	0	1	90	0.00	30.314 
20:10	13.6	13.6	13.6	78	8.0	0	3	90	0.00	30.314 
20:15	14.0	14.0	14.0	77	8.1	0	2	90	0.00	30.311 
20:20	14.0	14.0	14.0	77	8.1	0	1	90	0.00	30.311 
20:25	14.0	14.0	14.0	77	8.1	0	1	90	0.00	30.311 
20:30	13.8	13.8	13.8	77	7.9	0	1	90	0.00	30.309 
20:35	13.5	13.5	13.5	77	7.7	0	1	90	0.00	30.309 
20:40	13.3	13.3	13.3	77	7.5	0	0	---	0.00	30.309 
20:45	13.1	13.1	13.1	78	7.6	0	1	90	0.00	30.302 
20:50	13.1	13.1	13.1	79	7.8	0	2	90	0.00	30.302 
20:55	13.1	13.1	13.1	79	7.8	0	1	90	0.00	30.302 
21:00	13.1	13.1	13.1	79	7.8	0	0	---	0.00	30.308 
21:05	12.9	12.9	12.9	79	7.6	0	0	---	0.00	30.308 
21:10	12.6	12.6	12.6	79	7.3	0	0	---	0.00	30.308 
21:15	12.6	12.6	12.6	79	7.3	0	0	---	0.00	30.318 
21:20	12.1	12.1	12.1	79	6.9	0	0	---	0.00	30.318 
21:25	11.6	11.6	11.6	79	6.4	0	0	---	0.00	30.318 
21:30	11.1	11.1	11.1	79	5.9	0	0	---	0.00	30.315 
21:35	10.7	10.7	10.7	79	5.5	0	0	---	0.00	30.315 
21:40	10.4	10.4	10.4	79	5.2	0	0	---	0.00	30.315 
21:45	10.0	10.0	10.0	80	5.1	0	0	---	0.00	30.322 
21:50	9.9	9.9	9.9	80	5.0	0	0	---	0.00	30.322 
21:55	9.7	9.7	9.7	81	5.1	0	0	---	0.00	30.322 
22:00	9.7	9.7	9.7	81	5.1	0	0	---	0.00	30.300 
22:05	9.9	9.9	9.9	83	5.8	0	1	90	0.00	30.300 
22:10	10.4	10.4	10.4	83	6.3	0	0	---	0.00	30.300 
22:15	10.5	10.5	10.5	83	6.4	0	1	90	0.00	30.290 
22:20	10.7	10.7	10.7	83	6.6	0	0	---	0.00	30.290 
22:25	10.9	10.9	10.9	84	7.0	0	1	90	0.00	30.290 
22:30	11.1	11.1	11.1	84	7.2	0	1	90	0.00	30.293 
22:35	11.2	11.2	11.2	84	7.3	0	1	90	0.00	30.293 
22:40	11.2	11.2	11.2	84	7.3	0	1	90	0.00	30.293 
22:45	11.2	11.2	11.2	84	7.3	0	0	---	0.00	30.289 
22:50	11.4	11.4	11.4	84	7.5	0	1	90	0.00	30.289 
22:55	11.6	11.6	11.6	84	7.7	0	1	90	0.00	30.289 
23:00	11.7	11.7	11.7	84	7.8	0	1	90	0.00	30.288 
23:05	11.9	11.9	11.9	84	8.0	0	1	90	0.00	30.288 
23:10	12.1	12.1	12.1	84	8.2	0	1	90	0.00	30.288 
23:15	12.3	12.3	12.3	84	8.4	0	2	90	0.00	30.277 
23:20	12.4	12.4	12.4	83	8.2	1	2	90	0.00	30.277 
23:25	12.6	12.6	12.6	83	8.4	1	3	90	0.00	30.277 
23:30	12.8	12.8	12.8	83	8.6	1	3	90	0.00	30.269 
23:35	13.1	13.1	13.1	84	9.2	1	4	90	0.00	30.269 
23:40	13.6	13.6	13.6	83	9.4	1	5	90	0.00	30.269 
23:45	14.0	14.0	14.0	83	9.8	2	4	90	0.00	30.260 
23:50	14.3	14.3	14.3	83	10.1	2	4	90	0.00	30.260 
23:55	14.6	14.6	14.6	83	10.4	2	7	90	0.00	30.260 

CoCoRaHS
IN-AL-39
A2 Web Hosting
Creative Commons License
GoDaddy
search engine by freefind advanced

loaded 2018-11-19 18:45:56 • last modified 2010-11-18 10:43:29
Privacy PolicyDisclaimer
• wx.awcolley.com is powered by PmWiki v.2002016 •
• all content (unless otherwise noted) © 2018 A W Colley